Terminal Aerodrome Forecast
Issued by NWS

Home | Current Version | Previous Version | Text Only | Print | Product List | Glossary On
Versions: 1 2 3 4 5 6 7 8 9 10 11 12 13 14 15
000
FTUS43 KGRB 171700
TAFCWA
TAF
KCWA 171724Z 1718/1818 27008KT P6SM SCT060
     FM180200 04008KT P6SM BKN040
     FM180600 07006KT P6SM SCT020
     FM181600 11006KT P6SM BKN025=

USA.gov is the U.S. government's official web portal to all federal, state and local government web resources and services.